Disclaimer

Please do not use the information listed here in-flight or in-navigation, as they are not provided to us by the airports but are provided by volunteers, so they might be outdated.

Search


Regions


Airport information page

Radio informations:
Tower (TWR) - 126.35 MHz
Automatic Terminal Information Service (ATIS) - 124.325 MHz
Approach (APP) - 119.85 MHz

Airport informations:
Latitude: 53° 20' 01.00" N
Longitude: 002° 50' 59.00" W
Elevation: 80 feet - 24 meters
Operating hours: 24 hour operations
Operating agency: Civil government, landing fees and diplomatic clearance may be required
Timezone: UTC 0(+1DT) - Last Sunday in March to last Sunday in October
Fuel: Jet A1, without icing nhibitor.

100/130 MIL Spec, low lead, aviation gasoline (BLUE)

Runway information:
09/27 - 7500 x 151 feet< - >2286 x 46 meters

Recent METARs:
EGGP 170650Z 12009KT 080V150 9999 OVC005 09/08 Q1027
EGGP 170720Z 12007KT 9999 OVC007 09/07 Q1027
EGGP 170750Z 12009KT 9999 OVC010 09/07 Q1027

Airport on the map: